createdAt,value
2024-03-16T00:01:36.235Z,101411.19
2024-03-16T00:04:44.668Z,101406.03
2024-03-16T00:07:51.018Z,101406.38
2024-03-16T00:10:56.732Z,101405.06
2024-03-16T00:14:02.485Z,101409.25
2024-03-16T00:17:08.118Z,101407.41
2024-03-16T00:20:15.571Z,101405.69
2024-03-16T00:23:21.363Z,101402.28
2024-03-16T00:26:27.174Z,101407.63
2024-03-16T00:29:32.222Z,101402.28
2024-03-16T00:32:39.242Z,101396.09
2024-03-16T00:35:44.843Z,101395.88
2024-03-16T00:38:52.195Z,101400.28
2024-03-16T00:42:00.062Z,101395.41
2024-03-16T00:45:05.975Z,101394.47
2024-03-16T00:48:11.200Z,101405.88
2024-03-16T00:51:16.514Z,101396.56
2024-03-16T00:54:21.787Z,101396.09
2024-03-16T00:57:27.560Z,101394.84
2024-03-16T01:00:33.178Z,101393.66
2024-03-16T01:03:38.648Z,101397.84
2024-03-16T01:06:45.443Z,101390.16
2024-03-16T01:09:50.750Z,101389.00
2024-03-16T01:12:56.399Z,101390.59
2024-03-16T01:16:03.054Z,101385.63
2024-03-16T01:19:08.705Z,101382.59
2024-03-16T01:22:14.132Z,101381.66
2024-03-16T01:25:20.194Z,101378.06
2024-03-16T01:28:25.491Z,101380.28
2024-03-16T01:31:31.490Z,101389.25
2024-03-16T01:34:37.408Z,101379.91
2024-03-16T01:37:42.609Z,101379.78
2024-03-16T01:40:48.232Z,101374.56
2024-03-16T01:43:54.207Z,101385.34
2024-03-16T01:47:00.332Z,101390.47
2024-03-16T01:50:06.523Z,101384.56
2024-03-16T01:53:12.382Z,101385.44
2024-03-16T01:56:17.903Z,101387.81
2024-03-16T01:59:23.336Z,101385.13
2024-03-16T02:02:42.776Z,101383.50
2024-03-16T02:05:48.442Z,101384.88
2024-03-16T02:08:54.402Z,101385.94
2024-03-16T02:12:00.325Z,101373.47
2024-03-16T02:15:06.543Z,101375.91
2024-03-16T02:18:12.363Z,101375.22
2024-03-16T02:21:17.622Z,101370.81
2024-03-16T02:24:22.925Z,101378.94
2024-03-16T02:27:28.693Z,101370.69
2024-03-16T02:30:34.222Z,101367.06
2024-03-16T02:33:39.829Z,101371.50
2024-03-16T02:36:45.335Z,101368.09
2024-03-16T02:39:50.818Z,101375.09
2024-03-16T02:42:56.492Z,101371.50
2024-03-16T02:46:02.318Z,101371.84
2024-03-16T02:49:07.844Z,101371.25
2024-03-16T02:52:14.428Z,101369.56
2024-03-16T02:55:20.414Z,101363.44
2024-03-16T02:58:25.545Z,101361.47
2024-03-16T03:01:31.123Z,101372.03
2024-03-16T03:04:36.731Z,101362.97
2024-03-16T03:07:42.499Z,101361.81
2024-03-16T03:10:48.523Z,101361.53
2024-03-16T03:13:54.195Z,101359.00
2024-03-16T03:17:00.208Z,101357.69
2024-03-16T03:20:09.692Z,101360.03
2024-03-16T03:23:15.144Z,101358.38
2024-03-16T03:26:20.524Z,101361.91
2024-03-16T03:29:26.717Z,101363.97
2024-03-16T03:32:32.699Z,101365.41
2024-03-16T03:35:41.149Z,101368.50
2024-03-16T03:38:46.823Z,101374.97
2024-03-16T03:41:52.533Z,101377.44
2024-03-16T03:45:26.971Z,101378.69
2024-03-16T03:48:37.996Z,101391.25
2024-03-16T03:51:43.809Z,101381.94
2024-03-16T03:54:49.399Z,101395.94
2024-03-16T03:57:56.154Z,101391.63
2024-03-16T04:01:02.347Z,101399.47
2024-03-16T04:04:07.852Z,101404.03
2024-03-16T04:07:13.358Z,101397.94
2024-03-16T04:10:18.874Z,101398.69
2024-03-16T04:13:24.516Z,101395.56
2024-03-16T04:16:29.988Z,101396.47
2024-03-16T04:19:35.827Z,101399.94
2024-03-16T04:22:41.784Z,101406.53
2024-03-16T04:25:49.992Z,101399.47
2024-03-16T04:28:55.784Z,101410.25
2024-03-16T04:32:01.645Z,101416.03
2024-03-16T04:35:07.833Z,101418.72
2024-03-16T04:38:14.681Z,101402.00
2024-03-16T04:41:21.132Z,101403.84
2024-03-16T04:44:26.308Z,101399.72
2024-03-16T04:47:31.869Z,101409.53
2024-03-16T04:50:38.037Z,101403.44
2024-03-16T04:53:44.011Z,101410.09
2024-03-16T04:56:49.505Z,101410.19
2024-03-16T04:59:55.305Z,101413.09
2024-03-16T05:03:00.861Z,101411.81
2024-03-16T05:06:06.914Z,101405.44
2024-03-16T05:09:12.553Z,101413.31
2024-03-16T05:12:19.906Z,101417.97
2024-03-16T05:15:25.865Z,101417.66
2024-03-16T05:18:31.772Z,101414.88
2024-03-16T05:21:37.566Z,101414.47
2024-03-16T05:24:43.075Z,101411.28
2024-03-16T05:27:48.757Z,101419.47
2024-03-16T05:30:54.462Z,101422.16
2024-03-16T05:34:00.582Z,101426.59
2024-03-16T05:37:06.921Z,101428.66
2024-03-16T05:40:12.595Z,101428.81
2024-03-16T05:43:18.079Z,101423.91
2024-03-16T05:46:23.438Z,101432.53
2024-03-16T05:49:28.936Z,101434.00
2024-03-16T05:52:36.752Z,101439.63
2024-03-16T05:55:42.086Z,101440.00
2024-03-16T05:58:48.028Z,101447.50
2024-03-16T06:01:53.545Z,101459.31
2024-03-16T06:04:58.905Z,101464.00
2024-03-16T06:08:09.449Z,101465.41
2024-03-16T06:11:15.579Z,101470.50
2024-03-16T06:14:21.187Z,101474.53
2024-03-16T06:17:26.301Z,101476.09
2024-03-16T06:20:32.075Z,101484.25
2024-03-16T06:23:37.476Z,101477.09
2024-03-16T06:26:51.021Z,101481.25
2024-03-16T06:29:58.874Z,101481.75
2024-03-16T06:33:07.701Z,101487.94
2024-03-16T06:36:13.761Z,101490.16
2024-03-16T06:39:22.991Z,101494.94
2024-03-16T06:42:29.738Z,101504.50
2024-03-16T06:45:35.730Z,101498.03
2024-03-16T06:48:41.178Z,101512.28
2024-03-16T06:51:47.022Z,101508.97
2024-03-16T06:54:55.605Z,101516.16
2024-03-16T06:58:01.245Z,101513.00
2024-03-16T07:01:07.389Z,101518.16
2024-03-16T07:04:15.056Z,101520.66
2024-03-16T07:07:20.302Z,101522.06
2024-03-16T07:10:25.868Z,101521.56
2024-03-16T07:13:31.323Z,101525.69
2024-03-16T07:16:37.139Z,101537.06
2024-03-16T07:19:42.680Z,101534.78
2024-03-16T07:22:48.106Z,101540.06
2024-03-16T07:25:53.464Z,101545.56
2024-03-16T07:29:00.131Z,101548.88
2024-03-16T07:32:07.168Z,101550.25
2024-03-16T07:35:13.137Z,101559.13
2024-03-16T07:38:19.001Z,101558.88
2024-03-16T07:41:24.901Z,101553.31
2024-03-16T07:44:31.549Z,101563.19
2024-03-16T07:47:37.534Z,101567.88
2024-03-16T07:50:42.655Z,101566.25
2024-03-16T07:53:48.181Z,101569.97
2024-03-16T07:56:53.655Z,101561.44
2024-03-16T07:59:59.198Z,101575.03
2024-03-16T08:03:05.363Z,101569.94
2024-03-16T08:06:10.708Z,101566.84
2024-03-16T08:09:16.066Z,101568.91
2024-03-16T08:12:21.301Z,101568.66
2024-03-16T08:15:27.343Z,101575.28
2024-03-16T08:21:27.495Z,101572.75
2024-03-16T08:24:34.032Z,101571.03
2024-03-16T08:27:39.769Z,101572.09
2024-03-16T08:30:45.050Z,101572.13
2024-03-16T08:33:50.197Z,101567.94
2024-03-16T08:36:55.535Z,101565.94
2024-03-16T08:40:01.013Z,101578.44
2024-03-16T08:43:09.112Z,101576.94
2024-03-16T08:46:14.607Z,101580.16
2024-03-16T08:49:20.194Z,101582.59
2024-03-16T08:52:27.426Z,101580.13
2024-03-16T08:55:33.013Z,101580.69
2024-03-16T08:58:38.361Z,101583.63
2024-03-16T09:01:44.257Z,101571.09
2024-03-16T09:04:52.512Z,101581.19
2024-03-16T09:07:58.050Z,101584.38
2024-03-16T09:11:03.780Z,101582.44
2024-03-16T09:14:09.396Z,101581.22
2024-03-16T09:17:14.697Z,101579.34
2024-03-16T09:20:20.902Z,101584.06
2024-03-16T09:23:26.180Z,101578.47
2024-03-16T09:26:31.563Z,101573.13
2024-03-16T09:29:36.990Z,101569.91
2024-03-16T09:32:42.053Z,101572.84
2024-03-16T09:35:47.205Z,101576.53
2024-03-16T09:38:53.245Z,101579.91
2024-03-16T09:41:58.694Z,101582.63
